Time;durP1;ratioP1;P1;durP2;ratioP2;P2;SDS_P1;SDS_P2;PMS_P1;PMS_P2;Temp;Humidity;BMP_temperature;BMP_pressure;BME280_temperature;BME280_humidity;BME280_pressure;Samples;Min_cycle;Max_cycle;Signal;HPM_P1;HPM_P2
2022/09/08 00:00:27;;;;;;;3.45;1.48;;;;;;;20.65;67.32;96184.00;6243759;23;20073;-79
2022/09/08 00:10:39;;;;;;;2.85;1.67;;;;;;;20.66;67.27;96182.94;6211041;22;20032;-79
2022/09/08 01:47:02;;;;;;;1.58;1.48;;;;;;;19.78;69.80;96151.53;6100232;23;20083;-78
2022/09/08 02:40:35;;;;;;;1.98;0.80;;;;;;;20.00;68.99;96127.63;6176849;22;20025;-80
2022/09/08 02:43:25;;;;;;;3.13;0.80;;;;;;;20.01;68.91;96140.63;6181534;23;20021;-78
2022/09/08 02:46:17;;;;;;;5.03;1.10;;;;;;;20.03;68.64;96143.81;6179521;23;20021;-77
2022/09/08 02:49:15;;;;;;;2.40;1.10;;;;;;;20.04;68.48;96150.69;6153090;23;20025;-79
2022/09/08 03:26:19;;;;;;;1.30;0.98;;;;;;;19.74;69.06;96114.19;6184563;22;20028;-78
2022/09/08 03:29:02;;;;;;;1.88;1.00;;;;;;;19.72;68.81;96106.53;6210582;23;20009;-78
2022/09/08 03:34:27;;;;;;;1.95;0.73;;;;;;;19.75;69.32;96095.41;6154716;23;20001;-78
2022/09/08 03:37:22;;;;;;;1.80;0.73;;;;;;;19.79;69.44;96095.72;6182060;23;20025;-77
2022/09/08 03:40:15;;;;;;;1.52;0.95;;;;;;;19.86;72.01;96098.94;6181038;23;20247;-80
2022/09/08 03:43:16;;;;;;;1.27;0.95;;;;;;;19.93;71.60;96096.88;6178876;23;20009;-78
2022/09/08 03:49:06;;;;;;;1.45;0.80;;;;;;;19.96;70.67;96099.03;6143013;23;20022;-78
2022/09/08 03:51:50;;;;;;;1.27;0.80;;;;;;;19.94;71.44;96097.66;6150765;23;20018;-80
2022/09/08 04:13:15;;;;;;;1.60;1.50;;;;;;;20.07;70.80;96101.72;6173916;23;20048;-78
2022/09/08 04:28:09;;;;;;;1.65;1.40;;;;;;;20.03;70.22;96103.28;6200149;23;20032;-79
2022/09/08 04:31:03;;;;;;;1.42;1.33;;;;;;;19.96;68.67;96101.69;6208645;23;20001;-83
2022/09/08 04:37:13;;;;;;;2.28;1.98;;;;;;;19.92;68.97;96090.00;6179381;23;20310;-81
2022/09/08 04:43:27;;;;;;;2.42;2.20;;;;;;;19.91;70.76;96092.88;6147398;23;20018;-81
2022/09/08 04:46:08;;;;;;;2.30;1.80;;;;;;;19.92;68.75;96099.78;6147967;23;20038;-81
2022/09/08 04:49:25;;;;;;;1.58;1.45;;;;;;;19.88;68.98;96098.69;5069344;27;3665061;-81
2022/09/08 04:52:06;;;;;;;3.33;1.73;;;;;;;19.90;70.66;96104.53;5162166;27;20407;-80
2022/09/08 05:13:12;;;;;;;12.23;2.97;;;;;;;19.87;69.21;96136.78;5202616;23;20055;-80
2022/09/08 05:39:20;;;;;;;2.15;0.85;;;;;;;20.04;71.13;96144.63;3599614;23;20050;-81
2022/09/08 05:47:43;;;;;;;0.98;0.63;;;;;;;20.04;69.64;96142.75;5192292;23;20119;-79
2022/09/08 06:01:37;;;;;;;0.93;0.73;;;;;;;20.07;69.77;96155.50;1293646;26;20052;-82
2022/09/08 06:34:01;;;;;;;0.98;0.50;;;;;;;20.12;69.80;96195.25;4954902;29;20074;-80
2022/09/08 06:36:37;;;;;;;1.55;0.68;;;;;;;20.11;69.17;96190.19;4956723;28;20059;-80
2022/09/08 06:39:08;;;;;;;1.88;0.70;;;;;;;20.14;69.63;96195.81;4957084;28;20140;-80
2022/09/08 06:41:45;;;;;;;1.15;0.50;;;;;;;20.15;68.29;96194.75;4956798;28;20055;-80
2022/09/08 06:44:19;;;;;;;0.30;0.30;;;;;;;20.12;67.20;96195.25;4958392;28;20054;-81
2022/09/08 06:46:52;;;;;;;1.63;0.50;;;;;;;20.12;69.75;96205.84;5053593;23;20034;-79
2022/09/08 06:49:34;;;;;;;1.40;0.57;;;;;;;20.14;69.86;96202.97;4981037;28;20042;-79
2022/09/08 06:52:20;;;;;;;0.95;0.47;;;;;;;20.15;68.48;96210.63;4981956;28;20130;-79
2022/09/08 06:55:20;;;;;;;0.20;0.20;;;;;;;20.15;68.27;96210.63;5168358;23;20032;-80
2022/09/08 06:58:10;;;;;;;1.55;0.70;;;;;;;20.17;68.43;96210.38;4943469;29;20043;-79
2022/09/08 07:01:07;;;;;;;1.27;0.55;;;;;;;20.15;67.57;96217.78;4943486;29;20034;-80
2022/09/08 07:06:38;;;;;;;0.90;0.60;;;;;;;20.15;68.65;96218.56;5238684;23;20086;-79
2022/09/08 07:09:24;;;;;;;0.38;0.38;;;;;;;20.13;67.05;96218.03;4981528;28;20039;-79
2022/09/08 07:12:10;;;;;;;0.75;0.30;;;;;;;20.09;67.42;96216.13;4980531;28;20059;-79
2022/09/08 07:15:16;;;;;;;0.35;0.30;;;;;;;20.10;67.88;96221.19;4981654;28;20038;-79
2022/09/08 07:17:56;;;;;;;1.85;0.65;;;;;;;20.09;67.67;96206.34;4981603;28;20039;-79
2022/09/08 11:12:47;;;;;;;3.08;0.93;;;;;;;24.91;46.17;96291.47;4963523;29;20039;-82
2022/09/08 11:15:47;;;;;;;3.00;0.47;;;;;;;24.70;46.92;96287.41;4964397;28;20058;-82
2022/09/08 11:18:32;;;;;;;3.30;0.68;;;;;;;24.45;46.37;96281.97;4963685;28;20118;-82
2022/09/08 11:21:04;;;;;;;0.93;0.50;;;;;;;24.30;47.58;96287.41;4963148;28;20078;-82
2022/09/08 11:23:43;;;;;;;0.40;0.30;;;;;;;24.20;46.76;96295.44;4963851;28;20059;-82
2022/09/08 13:10:44;;;;;;;0.73;0.30;;;;;;;23.56;52.41;96311.19;4981817;28;20067;-80
2022/09/08 14:16:06;;;;;;;0.80;0.30;;;;;;;23.63;45.57;96294.91;5711945;23;20092;-79
2022/09/08 14:41:18;;;;;;;2.33;0.50;;;;;;;23.39;47.05;96290.19;5452464;23;20303;-81
2022/09/08 14:44:45;;;;;;;0.40;0.25;;;;;;;23.38;46.99;96285.97;5022494;28;20038;-80
2022/09/08 14:48:06;;;;;;;0.63;0.17;;;;;;;23.39;46.76;96290.19;5022646;28;20022;-80
2022/09/08 16:47:48;;;;;;;1.77;0.65;;;;;;;22.53;45.89;96275.16;4925200;23;20280;-84
2022/09/08 16:50:37;;;;;;;2.50;0.35;;;;;;;22.49;45.27;96263.47;4937565;29;20039;-79
2022/09/08 16:53:28;;;;;;;;;;;;;;;22.47;45.10;96263.72;4941644;29;20060;-79
2022/09/08 16:56:23;;;;;;;1.02;0.43;;;;;;;22.45;48.21;96265.03;4942978;29;19931;-79
2022/09/08 17:42:30;;;;;;;1.25;0.20;;;;;;;22.07;49.06;96275.88;4302332;23;20048;-79
2022/09/08 17:48:17;;;;;;;3.67;0.30;;;;;;;22.00;50.42;96276.13;4923743;29;20100;-79
2022/09/08 17:51:19;;;;;;;2.45;0.70;;;;;;;22.00;49.33;96291.28;4923396;29;20029;-79
2022/09/08 19:06:14;;;;;;;1.20;0.50;;;;;;;19.28;55.43;96346.44;5231096;23;20043;-81
2022/09/08 19:08:55;;;;;;;4.00;0.88;;;;;;;19.22;55.16;96350.84;4942953;29;20059;-79
2022/09/08 19:14:32;;;;;;;3.95;0.75;;;;;;;19.06;55.49;96351.66;5018920;23;20100;-78
2022/09/08 19:17:12;;;;;;;3.20;1.02;;;;;;;19.00;55.74;96349.97;4942986;29;20032;-79
2022/09/08 19:19:45;;;;;;;3.45;0.82;;;;;;;18.92;55.73;96352.00;4943064;29;20036;-79
2022/09/08 19:22:28;;;;;;;2.45;0.77;;;;;;;18.85;56.00;96354.00;4942761;29;20119;-79
2022/09/08 19:25:02;;;;;;;1.67;0.38;;;;;;;18.76;56.36;96358.06;4967934;23;20062;-89
2022/09/08 19:27:39;;;;;;;5.32;0.77;;;;;;;18.68;56.52;96353.97;4963576;29;20073;-83
2022/09/08 19:30:22;;;;;;;2.97;1.33;;;;;;;18.65;56.76;96361.53;4963214;28;20043;-83
2022/09/08 19:33:00;;;;;;;4.03;0.95;;;;;;;18.64;57.45;96368.69;4963474;29;20066;-82
2022/09/08 19:35:31;;;;;;;1.60;0.57;;;;;;;18.65;56.86;96370.28;4963041;28;20135;-83
2022/09/08 19:38:21;;;;;;;2.17;0.82;;;;;;;18.60;56.96;96370.19;4962057;28;20055;-84
2022/09/08 19:40:59;;;;;;;3.53;1.15;;;;;;;18.54;57.48;96371.13;4961209;28;20058;-84
2022/09/08 19:43:40;;;;;;;2.35;1.50;;;;;;;18.47;57.98;96378.41;4967848;28;20111;-88
2022/09/08 19:46:26;;;;;;;2.20;1.30;;;;;;;18.42;58.18;96373.84;4967117;28;20054;-84
2022/09/08 19:48:56;;;;;;;1.73;1.00;;;;;;;18.38;58.24;96379.84;4966902;28;20450;-85
2022/09/08 19:51:27;;;;;;;1.75;1.00;;;;;;;18.34;58.71;96384.78;4966467;28;20130;-87
2022/09/08 19:54:26;;;;;;;2.78;0.80;;;;;;;18.35;58.81;96378.47;4966692;28;20478;-87
2022/09/08 19:56:56;;;;;;;1.30;1.00;;;;;;;18.33;58.51;96372.63;4966374;28;20055;-87
2022/09/08 19:59:30;;;;;;;2.20;0.77;;;;;;;18.29;58.74;96385.50;4965856;28;20047;-85
2022/09/08 20:02:02;;;;;;;2.08;1.10;;;;;;;18.28;58.75;96386.53;4965370;28;20355;-85
2022/09/08 20:04:48;;;;;;;1.13;0.80;;;;;;;18.25;58.88;96387.00;4966623;28;20049;-85
2022/09/08 20:07:33;;;;;;;2.53;0.80;;;;;;;18.18;58.74;96383.69;4966653;28;20086;-87
2022/09/08 20:10:28;;;;;;;3.10;0.90;;;;;;;18.13;58.51;96391.53;4966069;28;20047;-86
2022/09/08 20:13:07;;;;;;;3.38;0.95;;;;;;;18.06;58.98;96391.66;4966949;28;20051;-84
2022/09/08 20:15:37;;;;;;;4.80;1.23;;;;;;;18.02;58.70;96393.16;4966839;28;20055;-85
2022/09/08 20:18:18;;;;;;;4.43;0.95;;;;;;;17.97;59.00;96395.69;4965489;28;20057;-85
2022/09/08 20:20:57;;;;;;;1.17;0.80;;;;;;;17.90;59.03;96393.19;4965419;28;20074;-83
2022/09/08 20:23:31;;;;;;;1.73;1.05;;;;;;;17.82;59.41;96395.38;4966044;28;20055;-84
2022/09/08 20:26:07;;;;;;;4.38;1.30;;;;;;;17.69;59.52;96391.94;4965304;28;20051;-88
2022/09/08 20:28:49;;;;;;;1.42;0.70;;;;;;;17.60;60.05;96393.34;4965089;28;20051;-87
2022/09/08 20:31:44;;;;;;;2.47;0.80;;;;;;;17.55;60.63;96398.47;4965379;28;20051;-84
2022/09/08 20:34:47;;;;;;;4.40;2.83;;;;;;;17.47;60.48;96391.75;4966989;28;20141;-89
2022/09/08 20:37:31;;;;;;;2.47;1.02;;;;;;;17.45;60.36;96396.44;4963740;29;20051;-87
2022/09/08 20:40:26;;;;;;;1.83;1.02;;;;;;;17.43;60.12;96395.88;4964068;28;20066;-85
2022/09/08 20:43:15;;;;;;;2.03;1.02;;;;;;;17.39;60.16;96396.56;4943942;29;20047;-84
2022/09/08 20:45:51;;;;;;;2.50;0.95;;;;;;;17.36;60.48;96394.38;4966926;28;20058;-84
2022/09/08 20:48:27;;;;;;;1.05;0.50;;;;;;;17.32;60.74;96387.94;4966991;28;20055;-84
2022/09/08 20:51:07;;;;;;;2.60;1.20;;;;;;;17.24;60.91;96389.91;4965180;28;20103;-82
2022/09/08 20:53:58;;;;;;;2.28;0.70;;;;;;;17.22;61.01;96397.22;4964332;28;20058;-83
2022/09/08 20:56:36;;;;;;;2.05;0.57;;;;;;;17.19;61.44;96397.69;4964162;28;20051;-82
2022/09/08 20:59:16;;;;;;;4.38;0.90;;;;;;;17.19;61.57;96391.63;4964017;28;20086;-83
2022/09/08 21:01:44;;;;;;;3.30;0.88;;;;;;;17.16;61.21;96392.88;4963398;28;20433;-82
2022/09/08 21:04:19;;;;;;;2.30;0.60;;;;;;;17.10;61.41;96393.81;4964152;28;20510;-81
2022/09/08 21:06:50;;;;;;;3.25;1.10;;;;;;;17.06;61.35;96392.66;4964280;28;20432;-80
2022/09/08 21:09:27;;;;;;;1.02;0.70;;;;;;;17.04;61.68;96390.22;4964037;28;20059;-80
2022/09/08 21:12:06;;;;;;;2.22;0.70;;;;;;;17.03;61.89;96390.44;4963340;29;20053;-83
2022/09/08 21:14:43;;;;;;;2.72;0.70;;;;;;;17.02;61.81;96394.13;4963902;28;20059;-80
2022/09/08 21:17:18;;;;;;;5.05;0.70;;;;;;;16.99;61.91;96400.66;4963583;28;20561;-79
2022/09/08 21:19:54;;;;;;;4.55;0.95;;;;;;;16.98;61.81;96390.34;4964564;28;20057;-82
2022/09/08 21:22:44;;;;;;;1.52;0.80;;;;;;;16.97;61.75;96394.03;4963737;28;20047;-83
2022/09/08 21:25:24;;;;;;;1.63;0.75;;;;;;;16.95;61.95;96396.06;4962921;28;20115;-80
2022/09/08 21:28:02;;;;;;;3.05;1.67;;;;;;;16.91;62.00;96400.97;4963606;28;20073;-83
2022/09/08 21:30:44;;;;;;;2.85;1.30;;;;;;;16.87;62.12;96400.63;4963928;28;20052;-80
2022/09/08 21:33:23;;;;;;;5.43;1.52;;;;;;;16.83;62.41;96410.00;4967453;28;20493;-80
2022/09/08 21:35:53;;;;;;;1.55;0.65;;;;;;;16.82;62.11;96405.78;4968110;28;20047;-84
2022/09/08 21:38:30;;;;;;;2.65;0.98;;;;;;;16.79;62.43;96408.84;4967359;28;20079;-84
2022/09/08 21:41:05;;;;;;;3.42;0.68;;;;;;;16.80;62.79;96409.66;4969463;28;20506;-84
2022/09/08 21:43:37;;;;;;;2.17;0.60;;;;;;;16.78;62.43;96412.50;4972631;28;20055;-84
2022/09/08 21:46:14;;;;;;;3.33;0.95;;;;;;;16.74;62.75;96413.97;4972876;28;20055;-85
2022/09/08 21:48:44;;;;;;;5.80;0.88;;;;;;;16.73;62.53;96407.09;4972009;28;20051;-86
2022/09/08 21:51:27;;;;;;;5.35;0.70;;;;;;;16.71;62.40;96411.78;4970649;28;20043;-87
2022/09/08 21:54:01;;;;;;;1.58;0.50;;;;;;;16.69;62.56;96413.84;4970703;28;20051;-82
2022/09/08 21:56:34;;;;;;;2.60;0.57;;;;;;;16.67;62.81;96415.91;4969728;28;20498;-83
2022/09/08 21:59:11;;;;;;;1.60;0.63;;;;;;;16.67;62.73;96415.91;4969730;28;20050;-81
2022/09/08 22:01:50;;;;;;;3.28;0.95;;;;;;;16.65;62.71;96415.31;4968016;29;20051;-84
2022/09/08 22:04:22;;;;;;;1.95;0.85;;;;;;;16.63;62.43;96418.16;4968051;28;20074;-80
2022/09/08 22:06:54;;;;;;;2.15;0.60;;;;;;;16.62;62.24;96418.41;4968615;28;20051;-86
2022/09/08 22:09:24;;;;;;;2.75;1.00;;;;;;;16.57;62.35;96418.25;4967355;28;20059;-83
2022/09/08 22:11:59;;;;;;;1.40;0.68;;;;;;;16.54;62.67;96421.34;4966232;28;20082;-80
2022/09/08 22:14:47;;;;;;;1.42;0.60;;;;;;;16.53;62.62;96414.47;4966897;28;20180;-80
2022/09/08 22:17:31;;;;;;;2.55;1.00;;;;;;;16.44;62.79;96406.91;4966321;28;20516;-82
2022/09/08 22:20:05;;;;;;;3.50;1.00;;;;;;;16.35;63.02;96413.47;4966446;28;20139;-80
2022/09/08 22:22:41;;;;;;;2.88;0.60;;;;;;;16.31;63.09;96412.34;4966756;28;20414;-83
2022/09/08 22:25:34;;;;;;;2.33;1.00;;;;;;;16.24;63.27;96411.59;4965331;28;20043;-80
2022/09/08 22:28:10;;;;;;;4.20;0.95;;;;;;;16.16;63.52;96414.53;4965882;28;20055;-84
2022/09/08 22:30:55;;;;;;;4.07;0.68;;;;;;;16.10;63.44;96410.97;4964747;28;20047;-80
2022/09/08 22:33:25;;;;;;;2.75;0.60;;;;;;;16.09;63.50;96406.72;4965003;28;20066;-84
2022/09/08 22:36:06;;;;;;;3.55;1.23;;;;;;;16.04;63.60;96396.88;4963693;29;20047;-82
2022/09/08 22:39:02;;;;;;;2.35;0.80;;;;;;;16.02;63.57;96398.91;4966662;28;20051;-84
2022/09/08 22:41:36;;;;;;;2.00;0.70;;;;;;;16.00;63.50;96402.78;4955713;28;20055;-84
2022/09/08 22:44:23;;;;;;;1.55;0.63;;;;;;;15.97;63.59;96401.41;4972354;28;20047;-87
2022/09/08 22:46:58;;;;;;;1.33;0.75;;;;;;;15.94;63.66;96398.41;4972385;28;20062;-86
2022/09/08 22:49:37;;;;;;;2.72;0.80;;;;;;;15.91;63.85;96402.28;4970688;28;20215;-84
2022/09/08 22:52:27;;;;;;;2.60;0.77;;;;;;;15.88;63.77;96397.47;4969458;28;20433;-83
2022/09/08 22:55:07;;;;;;;1.35;0.47;;;;;;;15.84;63.72;96396.31;4968290;28;20062;-81
2022/09/08 22:57:38;;;;;;;2.60;0.80;;;;;;;15.79;63.87;96399.59;4966974;28;20418;-82
2022/09/08 23:00:19;;;;;;;4.50;0.90;;;;;;;15.78;63.98;96402.44;4966439;28;20048;-83
2022/09/08 23:03:01;;;;;;;3.53;0.70;;;;;;;15.75;64.14;96398.44;4965919;28;20043;-86
2022/09/08 23:05:35;;;;;;;3.85;0.60;;;;;;;15.75;63.79;96395.00;4966687;28;20051;-84
2022/09/08 23:08:10;;;;;;;2.47;0.88;;;;;;;15.75;63.67;96397.63;4967891;28;20059;-86
2022/09/08 23:10:54;;;;;;;5.20;0.93;;;;;;;15.77;64.02;96395.59;4967381;28;20051;-85
2022/09/08 23:13:28;;;;;;;1.27;0.57;;;;;;;15.78;63.62;96397.97;4968164;28;20051;-86
2022/09/08 23:16:02;;;;;;;1.38;0.63;;;;;;;15.81;63.30;96396.75;4968338;28;20086;-83
2022/09/08 23:18:39;;;;;;;3.40;0.60;;;;;;;15.80;63.14;96397.75;4968247;28;20055;-84
2022/09/08 23:21:17;;;;;;;1.60;0.60;;;;;;;15.79;63.12;96394.34;4968094;28;20058;-85
2022/09/08 23:23:50;;;;;;;1.88;1.15;;;;;;;15.78;63.03;96402.44;4968254;28;20051;-88
2022/09/08 23:26:24;;;;;;;1.08;0.52;;;;;;;15.76;63.34;96396.59;4967849;28;20048;-86
2022/09/08 23:28:59;;;;;;;1.70;0.65;;;;;;;15.73;63.62;96394.41;4967872;28;20047;-86
2022/09/08 23:31:50;;;;;;;0.98;0.50;;;;;;;15.71;63.62;96396.44;4967214;28;20047;-85
2022/09/08 23:34:27;;;;;;;3.10;0.77;;;;;;;15.69;63.54;96393.22;4967234;28;20062;-82
2022/09/08 23:37:01;;;;;;;2.38;0.95;;;;;;;15.70;63.51;96394.81;4967603;28;20065;-84
2022/09/08 23:39:57;;;;;;;3.97;0.77;;;;;;;15.71;63.62;96392.00;4968756;28;20061;-87
2022/09/08 23:42:33;;;;;;;3.47;0.63;;;;;;;15.72;62.81;96382.28;4970464;28;20051;-82
2022/09/08 23:45:02;;;;;;;4.18;0.85;;;;;;;15.69;63.25;96382.69;4970562;28;20126;-85
2022/09/08 23:47:32;;;;;;;5.70;1.20;;;;;;;15.68;63.42;96387.16;4970466;28;20047;-82
2022/09/08 23:50:03;;;;;;;2.88;0.60;;;;;;;15.66;63.37;96384.72;4967448;28;20059;-81
2022/09/08 23:52:36;;;;;;;3.90;0.93;;;;;;;15.65;63.66;96380.50;4966960;28;20545;-83
2022/09/08 23:55:11;;;;;;;5.57;0.73;;;;;;;15.66;63.53;96384.72;4965716;28;20058;-82
2022/09/08 23:57:39;;;;;;;2.92;0.57;;;;;;;15.66;63.45;96382.09;4963947;28;20047;-86
